Airfield :
LOGIN :

Register | Disclaimer

   EN    FR    IT 

 










Legend :    VFR   Marginal VFR   IFR   Intensive IFR   Very Intensive IFR
Visi :
Ceiling :
>= 8 km
>= 3000ft
5 to 8 km
1000 to 3000 ft
1500m to 5 km
500 to 1000 ft
800 to 1500m
200 to 500 ft
< 800m
< 200 ft
Symbols :   Thunderstorms  Fog  Heavy snow  Heavy precipitations  Wind > 20 kt
SIGMETs :     Misc.  Thunderstorms  Icing  Turbulence  Mountain Waves  Volcanic Ashes






- Airport Elevation : 249 ft


EGOS - RAF Shawbury

CURRENT METAR :
  • 262120Z 25006KT 9999 FEW040 08/05 Q0998 NOSIG RMK BLU BLU

EXPIRED METARs :
  • 262050Z 25005KT 9999 FEW030 07/05 Q0998 NOSIG RMK BLU BLU
  • 262020Z 25008KT 9999 FEW040 08/05 Q0998 NOSIG RMK BLU BLU
  • 261950Z 25008KT 9999 FEW025 08/05 Q0998 NOSIG RMK BLU BLU
  • 261920Z 25007KT 9999 FEW030 SCT040 08/06 Q0998 NOSIG RMK BLU BLU
  • 261850Z 24009KT 9999 FEW025 08/05 Q0998 NOSIG RMK BLU BLU

TAF TAF EGOS
Valid from the 26 at 21:00 until the 27 at 01:00 UTC


261934Z 2621/2701 24008KT 9999 FEW025



MET'MAP, your aeronautical weather chart ! - Copyright ORBIFLY December 2007 - Disclaimer

ORBIFLY MET'MAP TEAM :

Programming & Development : Alexandra Zaïnal
Concept & original design : Baudouin d'Aumeries
Assistance for programming : Marc-Olivier Méhu
Technical & hardware support : Manuel Goepfert

Contact : metmap@orbifly.com




SOURCES & CREDITS :

   NOAA